createdAt,value
2019-01-20T00:02:05.900Z,38.70
2019-01-20T00:04:35.944Z,41.27
2019-01-20T00:07:04.931Z,40.63
2019-01-20T00:09:33.745Z,41.80
2019-01-20T00:12:02.636Z,42.83
2019-01-20T00:14:31.537Z,43.27
2019-01-20T00:17:00.341Z,45.37
2019-01-20T00:19:29.158Z,44.97
2019-01-20T00:21:57.998Z,46.07
2019-01-20T00:24:26.799Z,41.43
2019-01-20T00:26:55.668Z,45.30
2019-01-20T00:29:24.516Z,43.07
2019-01-20T00:31:53.325Z,41.53
2019-01-20T00:34:22.207Z,42.80
2019-01-20T00:36:51.175Z,42.17
2019-01-20T00:39:19.981Z,44.53
2019-01-20T00:41:48.785Z,42.13
2019-01-20T00:44:17.615Z,42.37
2019-01-20T00:46:46.429Z,46.83
2019-01-20T00:49:15.244Z,44.97
2019-01-20T00:51:44.089Z,43.80
2019-01-20T00:54:13.156Z,41.67
2019-01-20T00:56:41.967Z,43.63
2019-01-20T00:59:10.824Z,43.70
2019-01-20T01:01:39.640Z,45.30
2019-01-20T01:04:08.454Z,42.07
2019-01-20T01:06:37.278Z,44.23
2019-01-20T01:09:06.353Z,42.97
2019-01-20T01:11:35.232Z,43.87
2019-01-20T01:14:04.236Z,41.07
2019-01-20T01:16:33.125Z,42.60
2019-01-20T01:19:01.933Z,47.60
2019-01-20T01:21:30.793Z,46.83
2019-01-20T01:23:59.597Z,41.37
2019-01-20T01:26:28.404Z,43.80
2019-01-20T01:28:57.248Z,44.10
2019-01-20T01:31:26.056Z,42.67
2019-01-20T01:33:54.860Z,48.07
2019-01-20T01:36:23.701Z,46.33
2019-01-20T01:38:52.513Z,43.03
2019-01-20T01:41:21.380Z,44.97
2019-01-20T01:43:50.230Z,44.10
2019-01-20T01:46:19.030Z,47.70
2019-01-20T01:48:47.837Z,50.27
2019-01-20T01:51:16.693Z,50.87
2019-01-20T01:53:45.497Z,47.30
2019-01-20T01:56:14.292Z,47.07
2019-01-20T01:58:44.791Z,47.17
2019-01-20T02:01:13.584Z,43.33
2019-01-20T02:03:42.399Z,45.40
2019-01-20T02:06:11.340Z,47.90
2019-01-20T02:08:40.152Z,47.80
2019-01-20T02:11:08.958Z,47.37
2019-01-20T02:13:37.783Z,48.37
2019-01-20T02:16:06.585Z,44.40
2019-01-20T02:18:35.399Z,48.47
2019-01-20T02:21:04.293Z,48.53
2019-01-20T02:23:33.096Z,51.97
2019-01-20T02:26:01.914Z,46.53
2019-01-20T02:28:30.775Z,52.10
2019-01-20T02:30:59.585Z,47.40
2019-01-20T02:33:28.405Z,47.33
2019-01-20T02:35:57.219Z,53.20
2019-01-20T02:38:26.021Z,49.43
2019-01-20T02:40:54.935Z,46.30
2019-01-20T02:43:23.731Z,50.23
2019-01-20T02:45:52.628Z,46.67
2019-01-20T02:48:21.423Z,49.87
2019-01-20T02:50:50.221Z,47.03
2019-01-20T02:53:19.233Z,45.23
2019-01-20T02:55:48.068Z,50.80
2019-01-20T02:58:16.871Z,44.53
2019-01-20T03:00:45.691Z,48.50
2019-01-20T03:03:15.570Z,43.80
2019-01-20T03:05:44.374Z,43.40
2019-01-20T03:08:13.237Z,45.20
2019-01-20T03:10:42.160Z,53.53
2019-01-20T03:13:11.011Z,43.50
2019-01-20T03:15:39.830Z,48.70
2019-01-20T03:18:08.641Z,45.77
2019-01-20T03:20:37.453Z,46.20
2019-01-20T03:23:06.286Z,49.30
2019-01-20T03:25:35.101Z,45.20
2019-01-20T03:28:03.912Z,46.27
2019-01-20T03:30:32.753Z,47.87
2019-01-20T03:33:01.553Z,45.33
2019-01-20T03:35:30.366Z,49.60
2019-01-20T03:37:59.203Z,47.00
2019-01-20T03:40:28.021Z,41.80
2019-01-20T03:42:56.817Z,45.27
2019-01-20T03:45:25.664Z,42.80
2019-01-20T03:47:54.485Z,46.20
2019-01-20T03:50:23.288Z,44.43
2019-01-20T03:52:52.288Z,44.07
2019-01-20T03:55:21.093Z,50.83
2019-01-20T03:57:49.895Z,49.70
2019-01-20T04:00:20.594Z,45.13
2019-01-20T04:02:53.948Z,45.03
2019-01-20T04:05:22.754Z,47.70
2019-01-20T04:07:53.066Z,49.37
2019-01-20T04:10:22.080Z,46.97
2019-01-20T04:12:50.891Z,48.37
2019-01-20T04:15:19.763Z,51.10
2019-01-20T04:17:48.566Z,46.90
2019-01-20T04:20:17.409Z,47.17
2019-01-20T04:22:46.259Z,48.93
2019-01-20T04:25:16.036Z,46.80
2019-01-20T04:27:44.850Z,46.97
2019-01-20T04:30:15.625Z,49.30
2019-01-20T04:32:44.432Z,47.20
2019-01-20T04:35:13.307Z,47.30
2019-01-20T04:37:42.247Z,47.80
2019-01-20T04:40:12.624Z,48.97
2019-01-20T04:42:41.438Z,47.67
2019-01-20T04:45:11.557Z,49.17
2019-01-20T04:47:40.358Z,49.83
2019-01-20T04:50:10.793Z,49.73
2019-01-20T04:52:39.617Z,48.70
2019-01-20T04:55:09.392Z,49.33
2019-01-20T04:57:38.467Z,53.33
2019-01-20T05:00:08.922Z,53.00
2019-01-20T05:02:37.739Z,54.47
2019-01-20T05:05:06.537Z,55.07
2019-01-20T05:07:35.524Z,52.27
2019-01-20T05:10:05.954Z,53.23
2019-01-20T05:12:37.885Z,56.00
2019-01-20T05:15:07.135Z,50.40
2019-01-20T05:17:35.942Z,48.80
2019-01-20T05:20:06.126Z,52.70
2019-01-20T05:22:34.942Z,50.33
2019-01-20T05:25:04.611Z,53.93
2019-01-20T05:27:33.422Z,52.13
2019-01-20T05:30:02.444Z,49.90
2019-01-20T05:32:31.418Z,54.50
2019-01-20T05:35:00.233Z,51.87
2019-01-20T05:37:29.094Z,51.27
2019-01-20T05:39:57.903Z,59.50
2019-01-20T05:42:26.724Z,52.40
2019-01-20T05:44:55.550Z,55.53
2019-01-20T05:47:24.350Z,48.43
2019-01-20T05:49:53.168Z,60.93
2019-01-20T05:52:22.012Z,51.20
2019-01-20T05:54:50.825Z,50.83
2019-01-20T05:57:19.641Z,54.50
2019-01-20T05:59:48.475Z,54.00
2019-01-20T06:02:17.286Z,57.77
2019-01-20T06:04:46.131Z,51.60
2019-01-20T06:07:15.091Z,50.27
2019-01-20T06:09:43.902Z,55.37
2019-01-20T06:12:12.717Z,53.97
2019-01-20T06:14:41.544Z,53.20
2019-01-20T06:17:10.353Z,54.40
2019-01-20T06:19:39.163Z,52.33
2019-01-20T06:22:08.014Z,56.17
2019-01-20T06:24:36.811Z,52.63
2019-01-20T06:27:05.615Z,56.13
2019-01-20T06:29:34.481Z,58.47
2019-01-20T06:32:03.293Z,55.90
2019-01-20T06:34:32.079Z,55.00
2019-01-20T06:37:00.919Z,56.87
2019-01-20T06:39:30.305Z,52.70
2019-01-20T06:41:59.112Z,56.30
2019-01-20T06:44:27.949Z,51.80
2019-01-20T06:46:56.755Z,55.03
2019-01-20T06:49:25.635Z,54.33
2019-01-20T06:51:54.452Z,54.47
2019-01-20T06:54:23.535Z,56.00
2019-01-20T06:56:53.408Z,59.30
2019-01-20T06:59:22.220Z,53.53
2019-01-20T07:01:51.044Z,58.47
2019-01-20T07:04:19.850Z,53.77
2019-01-20T07:06:48.666Z,54.27
2019-01-20T07:09:17.484Z,57.47
2019-01-20T07:11:46.472Z,53.93
2019-01-20T07:14:15.357Z,55.13
2019-01-20T07:16:44.176Z,54.40
2019-01-20T07:19:13.026Z,59.20
2019-01-20T07:21:41.828Z,56.40
2019-01-20T07:24:11.683Z,52.50
2019-01-20T07:26:40.685Z,53.03
2019-01-20T07:29:09.494Z,56.17
2019-01-20T07:31:38.310Z,57.50
2019-01-20T07:34:07.174Z,58.70
2019-01-20T07:36:35.987Z,54.03
2019-01-20T07:39:06.099Z,59.70
2019-01-20T07:41:34.935Z,58.43
2019-01-20T07:44:03.745Z,58.40
2019-01-20T07:46:32.545Z,57.23
2019-01-20T07:49:01.373Z,53.63
2019-01-20T07:51:30.184Z,55.67
2019-01-20T07:53:58.988Z,57.43
2019-01-20T07:56:27.847Z,54.40
2019-01-20T07:58:56.646Z,58.27
2019-01-20T08:01:25.461Z,55.70
2019-01-20T08:03:54.290Z,54.53
2019-01-20T08:06:23.093Z,59.57
2019-01-20T08:08:51.902Z,53.90
2019-01-20T08:11:20.776Z,55.87
2019-01-20T08:13:49.644Z,56.60
2019-01-20T08:16:18.461Z,57.27
2019-01-20T08:18:47.328Z,61.47
2019-01-20T08:21:16.129Z,55.20
2019-01-20T08:23:44.961Z,55.30
2019-01-20T08:26:13.795Z,58.53
2019-01-20T08:28:42.596Z,60.87
2019-01-20T08:31:11.403Z,58.83
2019-01-20T08:33:40.252Z,58.57
2019-01-20T08:36:09.055Z,57.73
2019-01-20T08:38:37.867Z,58.20
2019-01-20T08:41:06.709Z,58.33
2019-01-20T08:43:35.781Z,56.93
2019-01-20T08:46:06.249Z,57.93
2019-01-20T08:48:36.652Z,63.57
2019-01-20T08:51:05.467Z,59.20
2019-01-20T08:53:34.359Z,58.30
2019-01-20T08:56:03.201Z,60.90
2019-01-20T08:58:32.014Z,61.27
2019-01-20T09:01:00.821Z,60.73
2019-01-20T09:03:29.699Z,58.20
2019-01-20T09:05:58.507Z,60.00
2019-01-20T09:08:27.361Z,62.33
2019-01-20T09:10:56.156Z,58.27
2019-01-20T09:13:25.111Z,58.07
2019-01-20T09:15:53.967Z,61.97
2019-01-20T09:18:22.775Z,65.83
2019-01-20T09:20:51.589Z,59.57
2019-01-20T09:23:20.403Z,63.80
2019-01-20T09:25:49.216Z,62.60
2019-01-20T09:28:18.095Z,61.10
2019-01-20T09:30:46.909Z,60.53
2019-01-20T09:33:15.716Z,57.70
2019-01-20T09:35:44.630Z,60.83
2019-01-20T09:38:14.402Z,58.23
2019-01-20T09:40:43.224Z,55.20
2019-01-20T09:43:12.076Z,63.53
2019-01-20T09:45:41.140Z,70.77
2019-01-20T09:48:11.020Z,62.23
2019-01-20T09:50:39.880Z,62.17
2019-01-20T09:53:08.689Z,63.67
2019-01-20T09:55:37.638Z,63.53
2019-01-20T09:58:06.494Z,64.40
2019-01-20T10:00:35.294Z,63.87
2019-01-20T10:03:04.118Z,65.77
2019-01-20T10:05:32.958Z,64.93
2019-01-20T10:08:01.828Z,56.33
2019-01-20T10:10:30.655Z,61.53
2019-01-20T10:12:59.497Z,61.03
2019-01-20T10:15:28.316Z,61.63
2019-01-20T10:17:57.139Z,61.40
2019-01-20T10:20:27.079Z,60.23
2019-01-20T10:22:55.942Z,60.87
2019-01-20T10:25:24.761Z,61.43
2019-01-20T10:27:53.637Z,67.37
2019-01-20T10:30:26.270Z,58.73
2019-01-20T10:32:55.091Z,61.10
2019-01-20T10:35:25.542Z,63.80
2019-01-20T10:37:55.848Z,62.47
2019-01-20T10:40:24.653Z,64.13
2019-01-20T10:42:53.453Z,60.33
2019-01-20T10:45:22.291Z,64.13
2019-01-20T10:47:51.115Z,62.30
2019-01-20T10:50:19.925Z,58.93
2019-01-20T10:52:48.759Z,64.03
2019-01-20T10:55:17.563Z,74.83
2019-01-20T10:57:46.364Z,62.80
2019-01-20T11:00:19.530Z,61.33
2019-01-20T11:02:48.419Z,63.73
2019-01-20T11:05:17.241Z,64.07
2019-01-20T11:07:46.118Z,62.60
2019-01-20T11:10:14.908Z,65.70
2019-01-20T11:12:44.889Z,62.47
2019-01-20T11:15:14.705Z,62.73
2019-01-20T11:17:43.503Z,62.50
2019-01-20T11:20:13.966Z,70.20
2019-01-20T11:22:42.970Z,60.53
2019-01-20T11:25:13.251Z,61.80
2019-01-20T11:27:42.129Z,67.17
2019-01-20T11:30:11.924Z,61.20
2019-01-20T11:32:42.481Z,66.67
2019-01-20T11:35:12.705Z,57.13
2019-01-20T11:37:42.532Z,64.43
2019-01-20T11:40:12.084Z,63.47
2019-01-20T11:42:40.879Z,57.50
2019-01-20T11:45:11.603Z,60.70
2019-01-20T11:47:42.021Z,57.93
2019-01-20T11:50:11.934Z,61.97
2019-01-20T11:52:40.741Z,58.03
2019-01-20T11:55:13.904Z,59.67
2019-01-20T11:57:42.733Z,59.13
2019-01-20T12:00:13.399Z,52.57
2019-01-20T12:02:42.245Z,61.77
2019-01-20T12:05:11.903Z,55.40
2019-01-20T12:07:40.711Z,59.27
2019-01-20T12:10:10.024Z,57.23
2019-01-20T12:12:39.361Z,58.73
2019-01-20T12:15:09.604Z,55.20
2019-01-20T12:17:38.514Z,56.10
2019-01-20T12:20:09.091Z,56.33
2019-01-20T12:22:37.898Z,57.77
2019-01-20T12:25:08.486Z,56.77
2019-01-20T12:27:37.286Z,59.23
2019-01-20T12:30:07.717Z,62.80
2019-01-20T12:32:36.544Z,58.87
2019-01-20T12:35:06.126Z,59.67
2019-01-20T12:37:34.945Z,59.50
2019-01-20T12:40:05.408Z,69.67
2019-01-20T12:42:34.219Z,60.67
2019-01-20T12:45:03.153Z,64.57
2019-01-20T12:47:32.003Z,61.20
2019-01-20T12:50:00.807Z,60.77
2019-01-20T12:52:29.615Z,60.23
2019-01-20T12:54:58.448Z,58.97
2019-01-20T12:57:27.250Z,57.30
2019-01-20T12:59:56.061Z,61.80
2019-01-20T13:02:24.902Z,56.47
2019-01-20T13:04:56.441Z,59.20
2019-01-20T13:07:24.209Z,57.83
2019-01-20T13:09:53.078Z,59.17
2019-01-20T13:12:21.893Z,59.90
2019-01-20T13:14:50.708Z,60.47
2019-01-20T13:17:19.531Z,59.70
2019-01-20T13:19:48.356Z,57.00
2019-01-20T13:22:17.163Z,57.13
2019-01-20T13:24:45.999Z,54.93
2019-01-20T13:27:14.819Z,59.20
2019-01-20T13:29:43.624Z,56.93
2019-01-20T13:32:12.464Z,56.07
2019-01-20T13:34:41.341Z,59.30
2019-01-20T13:37:10.146Z,55.37
2019-01-20T13:39:38.984Z,53.13
2019-01-20T13:42:07.790Z,59.90
2019-01-20T13:44:36.601Z,60.00
2019-01-20T13:47:05.444Z,55.07
2019-01-20T13:49:34.243Z,57.23
2019-01-20T13:52:03.049Z,57.73
2019-01-20T13:54:31.872Z,56.70
2019-01-20T13:57:00.703Z,57.40
2019-01-20T13:59:29.503Z,57.60
2019-01-20T14:01:58.321Z,56.90
2019-01-20T14:04:27.158Z,52.40
2019-01-20T14:06:55.970Z,56.30
2019-01-20T14:09:24.765Z,61.43
2019-01-20T14:11:53.600Z,59.40
2019-01-20T14:14:23.383Z,58.53
2019-01-20T14:16:52.191Z,58.27
2019-01-20T14:19:21.760Z,60.07
2019-01-20T14:21:50.815Z,55.37
2019-01-20T14:24:19.703Z,56.80
2019-01-20T14:26:48.586Z,53.53
2019-01-20T14:29:17.377Z,58.07
2019-01-20T14:31:46.178Z,56.30
2019-01-20T14:34:15.007Z,52.87
2019-01-20T14:36:43.944Z,56.00
2019-01-20T14:39:12.818Z,55.87
2019-01-20T14:41:41.657Z,54.30
2019-01-20T14:44:10.465Z,57.30
2019-01-20T14:46:39.257Z,50.83
2019-01-20T14:49:08.096Z,58.57
2019-01-20T14:51:36.910Z,55.17
2019-01-20T14:54:05.719Z,56.57
2019-01-20T14:56:34.545Z,54.13
2019-01-20T14:59:03.352Z,56.67
2019-01-20T15:01:32.184Z,53.70
2019-01-20T15:04:00.975Z,58.10
2019-01-20T15:06:29.780Z,53.10
2019-01-20T15:08:58.619Z,58.37
2019-01-20T15:11:27.428Z,55.53
2019-01-20T15:13:56.229Z,56.23
2019-01-20T15:16:25.072Z,55.93
2019-01-20T15:18:53.867Z,56.80
2019-01-20T15:21:22.673Z,52.97
2019-01-20T15:23:51.662Z,52.77
2019-01-20T15:26:20.462Z,54.50
2019-01-20T15:28:49.297Z,58.70
2019-01-20T15:31:18.180Z,53.70
2019-01-20T15:33:46.980Z,60.60
2019-01-20T15:36:15.854Z,52.73
2019-01-20T15:38:44.692Z,51.33
2019-01-20T15:41:13.493Z,53.60
2019-01-20T15:43:42.315Z,51.67
2019-01-20T15:46:11.208Z,47.40
2019-01-20T15:48:40.083Z,45.53
2019-01-20T15:51:08.927Z,52.23
2019-01-20T15:53:37.721Z,50.10
2019-01-20T15:56:06.525Z,50.43
2019-01-20T15:58:35.363Z,48.53
2019-01-20T16:01:04.170Z,48.17
2019-01-20T16:03:32.976Z,50.20
2019-01-20T16:06:01.809Z,50.00
2019-01-20T16:08:30.608Z,42.77
2019-01-20T16:10:59.418Z,49.33
2019-01-20T16:13:28.255Z,48.90
2019-01-20T16:15:57.056Z,42.57
2019-01-20T16:18:25.865Z,46.67
2019-01-20T16:20:54.708Z,50.23
2019-01-20T16:23:23.512Z,47.00
2019-01-20T16:25:52.315Z,51.03
2019-01-20T16:28:21.168Z,48.87
2019-01-20T16:30:49.988Z,46.37
2019-01-20T16:33:18.800Z,44.73
2019-01-20T16:35:47.631Z,48.53
2019-01-20T16:38:16.443Z,48.23
2019-01-20T16:40:45.254Z,48.30
2019-01-20T16:43:14.098Z,49.17
2019-01-20T16:45:42.908Z,48.87
2019-01-20T16:48:11.778Z,48.57
2019-01-20T16:50:40.591Z,47.73
2019-01-20T16:53:09.391Z,46.27
2019-01-20T16:55:38.249Z,42.60
2019-01-20T16:58:08.517Z,46.90
2019-01-20T17:00:38.401Z,43.30
2019-01-20T17:03:07.297Z,48.93
2019-01-20T17:05:36.107Z,44.63
2019-01-20T17:08:04.912Z,45.80
2019-01-20T17:10:34.818Z,49.73
2019-01-20T17:13:03.810Z,46.80
2019-01-20T17:15:39.348Z,45.47
2019-01-20T17:18:04.896Z,48.53
2019-01-20T17:20:33.694Z,47.10
2019-01-20T17:23:02.516Z,43.67
2019-01-20T17:25:31.340Z,44.90
2019-01-20T17:28:00.150Z,46.77
2019-01-20T17:30:33.070Z,49.60
2019-01-20T17:33:02.044Z,46.00
2019-01-20T17:35:30.866Z,48.47
2019-01-20T17:37:59.718Z,44.30
2019-01-20T17:40:28.519Z,44.07
2019-01-20T17:42:57.312Z,45.00
2019-01-20T17:45:27.332Z,46.27
2019-01-20T17:47:56.140Z,46.07
2019-01-20T17:50:29.889Z,44.97
2019-01-20T17:52:58.702Z,43.53
2019-01-20T17:55:27.500Z,46.33
2019-01-20T17:57:56.337Z,48.57
2019-01-20T18:00:27.953Z,41.80
2019-01-20T18:02:56.796Z,44.37
2019-01-20T18:05:25.605Z,44.80
2019-01-20T18:07:54.418Z,46.90
2019-01-20T18:10:23.251Z,45.70
2019-01-20T18:12:53.354Z,42.80
2019-01-20T18:15:23.207Z,42.97
2019-01-20T18:17:52.063Z,45.87
2019-01-20T18:20:24.860Z,43.83
2019-01-20T18:22:53.699Z,43.87
2019-01-20T18:25:22.689Z,44.87
2019-01-20T18:27:51.480Z,43.40
2019-01-20T18:30:21.292Z,41.33
2019-01-20T18:32:50.259Z,45.87
2019-01-20T18:35:19.142Z,42.87
2019-01-20T18:37:47.992Z,45.73
2019-01-20T18:40:17.570Z,46.33
2019-01-20T18:42:46.373Z,49.57
2019-01-20T18:45:16.167Z,50.23
2019-01-20T18:47:45.053Z,49.57
2019-01-20T18:50:15.481Z,50.07
2019-01-20T18:52:44.316Z,53.77
2019-01-20T18:55:14.132Z,47.50
2019-01-20T18:57:43.060Z,44.63
2019-01-20T19:00:13.714Z,47.03
2019-01-20T19:02:42.589Z,48.53
2019-01-20T19:05:12.768Z,45.93
2019-01-20T19:07:41.674Z,43.17
2019-01-20T19:10:11.850Z,53.20
2019-01-20T19:12:40.719Z,44.50
2019-01-20T19:15:10.713Z,49.50
2019-01-20T19:17:39.583Z,47.23
2019-01-20T19:20:10.055Z,44.37
2019-01-20T19:22:38.966Z,49.57
2019-01-20T19:25:07.768Z,42.87
2019-01-20T19:27:36.572Z,51.87
2019-01-20T19:30:07.096Z,44.63
2019-01-20T19:32:35.970Z,44.03
2019-01-20T19:35:06.446Z,45.03
2019-01-20T19:37:35.286Z,51.97
2019-01-20T19:40:05.732Z,48.70
2019-01-20T19:42:34.542Z,42.37
2019-01-20T19:45:04.047Z,45.73
2019-01-20T19:47:32.846Z,44.97
2019-01-20T19:50:01.648Z,40.87
2019-01-20T19:52:30.489Z,43.33
2019-01-20T19:54:59.288Z,46.77
2019-01-20T19:57:28.089Z,45.27
2019-01-20T19:59:56.986Z,42.80
2019-01-20T20:02:25.857Z,44.93
2019-01-20T20:04:54.787Z,43.63
2019-01-20T20:07:23.610Z,41.80
2019-01-20T20:09:52.495Z,39.07
2019-01-20T20:12:21.296Z,39.50
2019-01-20T20:14:50.186Z,43.87
2019-01-20T20:17:18.993Z,41.00
2019-01-20T20:19:47.805Z,41.37
2019-01-20T20:22:16.629Z,38.50
2019-01-20T20:24:45.431Z,38.07
2019-01-20T20:27:14.239Z,40.23
2019-01-20T20:29:43.085Z,35.50
2019-01-20T20:32:11.885Z,35.80
2019-01-20T20:34:40.708Z,36.97
2019-01-20T20:37:09.560Z,36.90
2019-01-20T20:39:38.365Z,34.13
2019-01-20T20:42:07.167Z,37.87
2019-01-20T20:44:36.007Z,37.83
2019-01-20T20:47:05.029Z,37.67
2019-01-20T20:49:33.857Z,37.83
2019-01-20T20:52:02.683Z,38.40
2019-01-20T20:54:35.339Z,32.57
2019-01-20T20:57:01.999Z,38.27
2019-01-20T20:59:30.872Z,36.67
2019-01-20T21:01:59.790Z,37.70
2019-01-20T21:04:28.709Z,39.00
2019-01-20T21:06:57.632Z,42.17
2019-01-20T21:09:26.581Z,42.70
2019-01-20T21:11:55.395Z,38.87
2019-01-20T21:14:24.237Z,43.00
2019-01-20T21:16:53.040Z,39.77
2019-01-20T21:19:21.867Z,40.80
2019-01-20T21:21:50.700Z,40.27
2019-01-20T21:24:19.512Z,41.27
2019-01-20T21:26:48.325Z,41.83
2019-01-20T21:29:17.187Z,43.23
2019-01-20T21:31:45.986Z,42.17
2019-01-20T21:34:14.823Z,48.87
2019-01-20T21:36:43.645Z,48.23
2019-01-20T21:39:12.496Z,47.30
2019-01-20T21:41:41.288Z,50.97
2019-01-20T21:44:10.140Z,43.43
2019-01-20T21:46:45.171Z,47.90
2019-01-20T21:49:09.445Z,47.10
2019-01-20T21:51:38.255Z,44.13
2019-01-20T21:54:07.062Z,43.93
2019-01-20T21:56:35.864Z,46.63
2019-01-20T21:59:04.701Z,44.83
2019-01-20T22:01:34.965Z,49.37
2019-01-20T22:04:03.782Z,50.93
2019-01-20T22:06:32.617Z,45.80
2019-01-20T22:09:01.423Z,50.43
2019-01-20T22:11:31.844Z,51.20
2019-01-20T22:14:00.684Z,48.43
2019-01-20T22:16:29.497Z,52.17
2019-01-20T22:18:58.307Z,50.70
2019-01-20T22:21:27.110Z,51.50
2019-01-20T22:23:55.967Z,49.37
2019-01-20T22:26:24.769Z,47.87
2019-01-20T22:28:53.571Z,49.77
2019-01-20T22:31:22.410Z,50.37
2019-01-20T22:33:51.212Z,50.00
2019-01-20T22:36:20.021Z,51.83
2019-01-20T22:38:48.837Z,55.03
2019-01-20T22:41:17.641Z,48.97
2019-01-20T22:43:46.502Z,52.07
2019-01-20T22:46:15.357Z,51.10
2019-01-20T22:48:44.159Z,53.70
2019-01-20T22:51:12.956Z,53.57
2019-01-20T22:53:42.703Z,53.97
2019-01-20T22:56:11.516Z,53.60
2019-01-20T22:58:40.315Z,59.17
2019-01-20T23:01:09.425Z,56.27
2019-01-20T23:03:38.299Z,56.47
2019-01-20T23:06:07.120Z,60.23
2019-01-20T23:08:35.950Z,54.23
2019-01-20T23:11:04.748Z,56.57
2019-01-20T23:13:33.560Z,55.60
2019-01-20T23:16:02.393Z,54.10
2019-01-20T23:18:31.265Z,55.57
2019-01-20T23:21:00.108Z,56.33
2019-01-20T23:23:29.011Z,52.43
2019-01-20T23:25:57.880Z,53.30
2019-01-20T23:28:26.757Z,50.97
2019-01-20T23:30:55.586Z,52.83
2019-01-20T23:33:24.456Z,53.17
2019-01-20T23:35:53.278Z,56.40
2019-01-20T23:38:22.191Z,54.47
2019-01-20T23:40:50.998Z,51.20
2019-01-20T23:43:19.800Z,53.73
2019-01-20T23:45:48.618Z,57.33
2019-01-20T23:48:17.434Z,59.53
2019-01-20T23:50:47.289Z,58.97
2019-01-20T23:53:16.298Z,59.23
2019-01-20T23:55:45.086Z,57.03
2019-01-20T23:58:13.888Z,59.70
